Time;durP1;ratioP1;P1;durP2;ratioP2;P2;SDS_P1;SDS_P2;PMS_P1;PMS_P2;Temp;Humidity;BMP_temperature;BMP_pressure;BME280_temperature;BME280_humidity;BME280_pressure;Samples;Min_cycle;Max_cycle;Signal;HPM_P1;HPM_P2
2022/06/24 00:01:59;;;;;;;0.00;0.00;;;18.40;99.90;;;;;;4949381;28;20055;-80
2022/06/24 00:04:27;;;;;;;0.22;0.22;;;18.40;99.90;;;;;;4960464;28;20042;-80
2022/06/24 00:06:53;;;;;;;0.10;0.10;;;18.30;99.90;;;;;;4956869;28;20030;-80
2022/06/24 00:09:19;;;;;;;0.10;0.10;;;18.40;99.90;;;;;;4934793;28;20039;-80
2022/06/24 00:11:45;;;;;;;0.07;0.07;;;18.30;99.90;;;;;;4960661;28;20057;-81
2022/06/24 00:14:13;;;;;;;0.10;0.10;;;18.20;99.90;;;;;;4957436;28;20438;-80
2022/06/24 00:16:57;;;;;;;0.00;0.00;;;18.20;99.90;;;;;;4944167;28;20474;-80
2022/06/24 00:19:24;;;;;;;3.13;1.13;;;18.10;99.90;;;;;;4959426;28;20428;-80
2022/06/24 00:22:03;;;;;;;0.00;0.00;;;18.10;99.90;;;;;;4956651;28;20507;-80
2022/06/24 00:24:30;;;;;;;0.00;0.00;;;18.00;99.90;;;;;;4956873;28;20035;-80
2022/06/24 00:26:56;;;;;;;0.05;0.05;;;17.90;99.90;;;;;;4954470;28;20039;-80
2022/06/24 00:29:24;;;;;;;0.00;0.00;;;18.00;99.90;;;;;;4942240;28;20057;-80
2022/06/24 00:32:00;;;;;;;1.77;1.00;;;18.00;99.90;;;;;;4948067;28;20633;-80
2022/06/24 00:34:26;;;;;;;0.05;0.00;;;17.90;99.90;;;;;;4960205;28;20066;-81
2022/06/24 00:36:51;;;;;;;0.10;0.10;;;18.00;99.90;;;;;;4956608;28;20135;-81
2022/06/24 00:39:17;;;;;;;0.00;0.00;;;18.00;99.90;;;;;;4956043;28;20145;-81
2022/06/24 00:41:43;;;;;;;0.00;0.00;;;18.00;99.90;;;;;;4960053;28;20066;-80
2022/06/24 00:44:11;;;;;;;0.00;0.00;;;17.90;99.90;;;;;;4957169;28;20041;-81
2022/06/24 00:46:41;;;;;;;0.00;0.00;;;17.90;99.90;;;;;;4955857;28;20030;-80
2022/06/24 00:49:09;;;;;;;0.00;0.00;;;17.80;99.90;;;;;;4946904;28;20058;-81
2022/06/24 00:51:37;;;;;;;0.10;0.10;;;17.90;99.90;;;;;;4962750;28;20098;-81
2022/06/24 00:54:12;;;;;;;0.00;0.00;;;17.90;99.90;;;;;;4951277;28;20034;-81
2022/06/24 00:56:38;;;;;;;0.00;0.00;;;17.90;99.90;;;;;;4955975;28;20035;-80
2022/06/24 00:59:08;;;;;;;0.00;0.00;;;17.90;99.90;;;;;;4961557;28;20034;-80
2022/06/24 01:01:36;;;;;;;0.00;0.00;;;18.00;99.90;;;;;;4960690;28;20301;-81
2022/06/24 01:04:04;;;;;;;0.10;0.10;;;18.00;99.90;;;;;;4958767;28;20857;-80
2022/06/24 01:06:30;;;;;;;0.03;0.03;;;17.90;99.90;;;;;;4955448;28;20066;-80
2022/06/24 01:08:57;;;;;;;0.10;0.05;;;18.00;99.90;;;;;;4941826;28;20862;-81
2022/06/24 01:11:28;;;;;;;0.15;0.15;;;17.90;99.90;;;;;;4961438;28;20098;-80
2022/06/24 01:13:55;;;;;;;0.00;0.00;;;18.00;99.90;;;;;;4974090;28;20023;-80
2022/06/24 01:16:23;;;;;;;;;;;18.20;99.90;;;;;;4952126;28;20027;-80
2022/06/24 01:18:51;;;;;;;0.00;0.00;;;18.20;99.90;;;;;;4959015;28;19918;-80
2022/06/24 01:21:42;;;;;;;0.00;0.00;;;18.10;99.90;;;;;;4963626;28;20059;-81
2022/06/24 01:24:08;;;;;;;0.00;0.00;;;18.10;99.90;;;;;;4957219;28;20031;-81
2022/06/24 01:26:36;;;;;;;0.17;0.17;;;18.20;99.90;;;;;;4956746;28;20682;-81
2022/06/24 01:29:02;;;;;;;0.00;0.00;;;18.10;99.90;;;;;;4967306;28;20376;-81
2022/06/24 01:31:28;;;;;;;0.08;0.00;;;18.20;99.90;;;;;;4933265;29;20039;-80
2022/06/24 01:33:54;;;;;;;0.00;0.00;;;18.20;99.90;;;;;;4954862;28;20031;-80
2022/06/24 01:36:19;;;;;;;0.00;0.00;;;18.20;99.90;;;;;;4955421;28;20031;-81
2022/06/24 01:38:45;;;;;;;0.20;0.20;;;18.20;99.90;;;;;;4958989;28;20038;-81
2022/06/24 01:41:11;;;;;;;0.00;0.00;;;18.20;99.90;;;;;;4949110;28;20621;-80
2022/06/24 01:43:36;;;;;;;0.00;0.00;;;18.00;99.90;;;;;;4960356;28;20407;-81
2022/06/24 01:46:02;;;;;;;0.50;0.40;;;18.10;99.90;;;;;;4958121;28;20046;-80
2022/06/24 01:48:28;;;;;;;0.07;0.07;;;18.10;99.90;;;;;;4955234;28;20043;-80
2022/06/24 01:50:55;;;;;;;0.07;0.07;;;18.00;99.90;;;;;;4958775;28;20756;-80
2022/06/24 01:53:20;;;;;;;;;;;18.10;99.90;;;;;;4935583;28;20415;-81
2022/06/24 01:55:46;;;;;;;0.10;0.10;;;18.10;99.90;;;;;;4957781;28;19910;-80
2022/06/24 01:58:12;;;;;;;0.10;0.10;;;18.10;99.90;;;;;;4953093;28;20031;-80
2022/06/24 02:00:38;;;;;;;3.20;0.33;;;18.00;99.90;;;;;;4951990;28;20038;-80
2022/06/24 02:03:06;;;;;;;0.00;0.00;;;18.00;99.90;;;;;;4953424;28;20035;-80
2022/06/24 02:05:33;;;;;;;0.00;0.00;;;18.10;99.90;;;;;;4959386;28;20067;-80
2022/06/24 02:07:58;;;;;;;0.10;0.10;;;18.00;99.90;;;;;;4956914;28;20154;-80
2022/06/24 02:13:26;;;;;;;0.00;0.00;;;18.10;99.90;;;;;;4956014;28;20049;-81
2022/06/24 02:15:58;;;;;;;0.98;0.50;;;18.10;99.90;;;;;;4958110;28;20061;-81
2022/06/24 02:18:25;;;;;;;0.00;0.00;;;18.00;99.90;;;;;;4965007;28;20604;-80
2022/06/24 02:20:52;;;;;;;0.10;0.10;;;18.00;99.90;;;;;;4971121;28;20078;-81
2022/06/24 02:23:18;;;;;;;0.00;0.00;;;18.00;99.90;;;;;;4959786;28;20038;-81
2022/06/24 02:25:45;;;;;;;0.00;0.00;;;18.10;99.90;;;;;;4958976;28;20110;-80
2022/06/24 02:28:12;;;;;;;0.08;0.08;;;18.10;99.90;;;;;;4957951;28;20414;-81
2022/06/24 02:30:38;;;;;;;0.30;0.10;;;18.10;99.90;;;;;;4955933;28;20039;-81
2022/06/24 02:33:05;;;;;;;3.00;0.80;;;18.10;99.90;;;;;;4960645;28;20038;-81
2022/06/24 02:35:30;;;;;;;1.23;0.10;;;17.80;99.90;;;;;;4960048;28;20397;-80
2022/06/24 02:37:56;;;;;;;0.10;0.10;;;17.90;99.90;;;;;;4963522;28;20050;-81
2022/06/24 02:43:14;;;;;;;0.30;0.30;;;18.00;99.90;;;;;;4962476;28;20459;-81
2022/06/24 02:45:40;;;;;;;0.25;0.10;;;18.00;99.90;;;;;;4961119;28;20039;-80
2022/06/24 02:48:08;;;;;;;0.00;0.00;;;18.10;99.90;;;;;;4960472;28;20082;-81
2022/06/24 02:51:04;;;;;;;0.10;0.10;;;18.10;99.90;;;;;;4962577;28;20030;-81
2022/06/24 02:53:31;;;;;;;0.00;0.00;;;18.10;99.90;;;;;;4956384;28;20126;-81
2022/06/24 02:55:59;;;;;;;0.10;0.10;;;18.00;99.90;;;;;;4954795;28;20088;-81
2022/06/24 02:58:25;;;;;;;0.00;0.00;;;18.10;99.90;;;;;;4962530;28;20538;-81
2022/06/24 03:00:51;;;;;;;0.10;0.10;;;18.00;99.90;;;;;;4942694;28;20043;-81
2022/06/24 03:03:19;;;;;;;0.00;0.00;;;18.10;99.90;;;;;;4958964;28;20134;-81
2022/06/24 03:05:46;;;;;;;0.10;0.10;;;18.10;99.90;;;;;;4962376;28;20047;-80
2022/06/24 03:08:13;;;;;;;0.08;0.08;;;18.10;99.90;;;;;;4965974;28;20058;-80
2022/06/24 03:10:40;;;;;;;0.10;0.10;;;18.00;99.90;;;;;;4962579;28;20035;-80
2022/06/24 03:13:06;;;;;;;0.00;0.00;;;18.00;99.90;;;;;;4959691;28;20031;-80
2022/06/24 03:15:32;;;;;;;0.10;0.10;;;17.90;99.90;;;;;;4956049;28;20046;-81
2022/06/24 03:17:58;;;;;;;0.10;0.10;;;17.90;99.90;;;;;;4952379;28;20298;-81
2022/06/24 03:20:24;;;;;;;0.15;0.15;;;17.80;99.90;;;;;;4949774;28;20118;-80
2022/06/24 03:22:50;;;;;;;0.00;0.00;;;17.70;99.90;;;;;;4942659;28;20942;-80
2022/06/24 03:25:16;;;;;;;0.10;0.10;;;17.50;99.90;;;;;;4958864;28;20045;-81
2022/06/24 03:27:41;;;;;;;0.23;0.23;;;17.60;99.90;;;;;;4959489;28;20026;-81
2022/06/24 03:30:09;;;;;;;0.00;0.00;;;17.70;99.90;;;;;;4951847;28;20637;-80
2022/06/24 03:32:35;;;;;;;0.10;0.10;;;17.70;99.90;;;;;;4961705;28;20069;-80
2022/06/24 03:35:02;;;;;;;0.13;0.13;;;17.50;99.90;;;;;;4957841;28;20027;-80
2022/06/24 03:37:31;;;;;;;0.30;0.30;;;17.50;99.90;;;;;;4950894;28;20051;-80
2022/06/24 03:39:57;;;;;;;0.10;0.10;;;17.40;99.90;;;;;;4956295;28;20050;-81
2022/06/24 03:42:23;;;;;;;0.08;0.08;;;17.50;99.90;;;;;;4955286;28;20067;-81
2022/06/24 03:44:49;;;;;;;0.30;0.30;;;17.50;99.90;;;;;;4951508;28;20038;-81
2022/06/24 03:47:15;;;;;;;0.28;0.28;;;17.50;99.90;;;;;;4959087;28;20059;-81
2022/06/24 03:49:41;;;;;;;0.00;0.00;;;17.40;99.90;;;;;;4959960;28;20077;-80
2022/06/24 03:52:07;;;;;;;1.70;1.10;;;17.40;99.90;;;;;;4958793;28;20027;-80
2022/06/24 03:54:34;;;;;;;0.17;0.17;;;17.40;99.90;;;;;;4962236;28;20042;-81
2022/06/24 03:56:59;;;;;;;0.17;0.17;;;17.40;99.90;;;;;;4940157;28;20479;-80
2022/06/24 03:59:25;;;;;;;0.40;0.40;;;17.80;99.90;;;;;;4962102;28;20035;-82
2022/06/24 04:01:51;;;;;;;0.50;0.47;;;18.00;99.90;;;;;;4959244;28;20050;-82
2022/06/24 04:04:17;;;;;;;0.00;0.00;;;18.10;99.90;;;;;;4958760;28;20031;-81
2022/06/24 04:06:42;;;;;;;0.33;0.30;;;18.00;99.90;;;;;;4957136;28;20074;-83
2022/06/24 04:09:08;;;;;;;0.10;0.10;;;18.00;99.90;;;;;;4959225;28;20119;-82
2022/06/24 04:11:34;;;;;;;0.20;0.20;;;17.90;99.90;;;;;;4962034;28;20031;-82
2022/06/24 04:14:00;;;;;;;0.23;0.23;;;18.00;99.90;;;;;;4958247;28;20034;-82
2022/06/24 04:16:26;;;;;;;0.20;0.20;;;18.00;99.90;;;;;;4960164;28;20496;-82
2022/06/24 04:18:53;;;;;;;0.52;0.40;;;17.70;99.90;;;;;;4959294;28;20070;-82
2022/06/24 04:21:19;;;;;;;0.00;0.00;;;18.00;99.90;;;;;;4956477;28;20058;-82
2022/06/24 04:23:49;;;;;;;0.20;0.20;;;17.80;99.90;;;;;;4957655;28;20050;-82
2022/06/24 04:26:15;;;;;;;0.80;0.32;;;18.10;99.90;;;;;;4944008;28;20122;-82
2022/06/24 04:28:41;;;;;;;0.68;0.40;;;18.00;99.90;;;;;;4954554;28;20150;-82
2022/06/24 04:31:06;;;;;;;5.77;1.23;;;18.00;99.90;;;;;;4957457;28;20121;-82
2022/06/24 04:33:32;;;;;;;0.20;0.20;;;18.00;99.90;;;;;;4955897;28;20505;-82
2022/06/24 04:35:58;;;;;;;0.53;0.53;;;17.60;99.90;;;;;;4957785;28;20041;-83
2022/06/24 04:38:24;;;;;;;0.33;0.33;;;17.80;99.90;;;;;;4920764;28;20035;-82
2022/06/24 04:40:50;;;;;;;0.00;0.00;;;17.70;99.90;;;;;;4954884;28;20111;-83
2022/06/24 04:43:15;;;;;;;0.10;0.10;;;17.60;99.90;;;;;;4941030;28;20396;-83
2022/06/24 04:45:44;;;;;;;0.10;0.10;;;17.50;99.90;;;;;;4956618;28;20035;-83
2022/06/24 04:48:11;;;;;;;0.30;0.30;;;17.40;99.90;;;;;;4956690;28;20047;-83
2022/06/24 04:50:36;;;;;;;;;;;17.40;99.90;;;;;;4960969;28;20512;-83
2022/06/24 04:53:03;;;;;;;0.17;0.17;;;17.40;99.90;;;;;;4960627;28;19925;-83
2022/06/24 04:55:29;;;;;;;;;;;17.40;99.90;;;;;;4959938;28;20061;-83
2022/06/24 04:57:54;;;;;;;0.20;0.20;;;17.50;99.90;;;;;;4955213;28;20492;-83
2022/06/24 05:00:20;;;;;;;0.30;0.30;;;17.80;99.90;;;;;;4957356;28;20432;-83
2022/06/24 05:02:46;;;;;;;0.00;0.00;;;17.60;99.90;;;;;;4958357;28;20078;-83
2022/06/24 05:05:12;;;;;;;0.40;0.40;;;17.50;99.90;;;;;;4956180;28;20079;-83
2022/06/24 05:07:38;;;;;;;0.23;0.23;;;17.40;99.90;;;;;;4958166;28;20118;-83
2022/06/24 05:10:05;;;;;;;0.10;0.10;;;17.50;99.90;;;;;;4952962;28;20038;-83
2022/06/24 05:12:31;;;;;;;0.25;0.25;;;17.60;99.90;;;;;;4957578;28;20038;-83
2022/06/24 05:14:57;;;;;;;0.97;0.40;;;17.60;99.90;;;;;;4951368;28;20496;-83
2022/06/24 05:17:23;;;;;;;0.93;0.60;;;17.40;99.90;;;;;;4959681;28;20046;-82
2022/06/24 05:19:49;;;;;;;0.32;0.30;;;17.10;99.90;;;;;;4934245;28;20047;-82
2022/06/24 05:22:15;;;;;;;0.73;0.73;;;17.00;99.90;;;;;;4960902;28;20066;-82
2022/06/24 05:24:41;;;;;;;0.20;0.20;;;17.00;99.90;;;;;;4959645;28;20150;-83
2022/06/24 05:27:06;;;;;;;1.60;0.37;;;17.20;99.90;;;;;;4955389;28;20562;-83
2022/06/24 05:29:32;;;;;;;0.33;0.33;;;17.10;99.90;;;;;;4961527;28;20688;-82
2022/06/24 05:31:58;;;;;;;0.60;0.60;;;17.20;99.90;;;;;;4956699;28;20110;-83
2022/06/24 05:34:23;;;;;;;0.00;0.00;;;17.30;99.90;;;;;;4958620;28;20031;-84
2022/06/24 05:36:49;;;;;;;0.43;0.43;;;17.20;99.90;;;;;;4955950;28;20026;-83
2022/06/24 05:39:15;;;;;;;0.10;0.10;;;17.40;99.90;;;;;;4955140;28;20035;-83
2022/06/24 05:41:43;;;;;;;0.10;0.10;;;17.40;99.90;;;;;;4959789;28;20038;-83
2022/06/24 05:44:09;;;;;;;0.20;0.20;;;17.20;99.90;;;;;;4956437;28;20035;-84
2022/06/24 05:46:35;;;;;;;;;;;17.40;99.90;;;;;;4960281;28;20065;-83
2022/06/24 05:49:01;;;;;;;0.53;0.43;;;17.40;99.90;;;;;;4956129;28;19949;-83
2022/06/24 05:51:28;;;;;;;0.10;0.10;;;17.60;99.90;;;;;;4955038;28;20027;-83
2022/06/24 05:56:37;;;;;;;0.57;0.57;;;17.80;99.90;;;;;;4960823;28;20732;-82
2022/06/24 05:59:04;;;;;;;0.20;0.20;;;17.90;99.90;;;;;;4938751;28;20079;-83
2022/06/24 06:01:30;;;;;;;0.10;0.10;;;17.90;99.90;;;;;;4961064;28;20411;-83
2022/06/24 06:03:56;;;;;;;0.32;0.32;;;17.90;99.90;;;;;;4936062;28;20517;-85
2022/06/24 06:06:22;;;;;;;0.28;0.28;;;17.80;99.90;;;;;;4957702;28;20023;-84
2022/06/24 06:08:48;;;;;;;0.23;0.20;;;18.00;99.90;;;;;;4958595;28;20415;-84
2022/06/24 06:11:18;;;;;;;0.10;0.10;;;17.90;99.90;;;;;;4956747;28;20778;-84
2022/06/24 06:13:46;;;;;;;0.10;0.10;;;17.90;99.90;;;;;;4939439;28;20035;-83
2022/06/24 06:16:12;;;;;;;0.28;0.13;;;17.80;99.90;;;;;;4956298;28;20121;-83
2022/06/24 06:18:38;;;;;;;0.37;0.37;;;17.90;99.90;;;;;;4958130;28;20053;-83
2022/06/24 06:21:06;;;;;;;0.20;0.17;;;18.00;99.90;;;;;;4948376;28;20133;-84
2022/06/24 06:23:33;;;;;;;0.25;0.25;;;18.10;99.90;;;;;;4958387;28;20027;-83
2022/06/24 06:26:00;;;;;;;0.70;0.30;;;18.40;99.90;;;;;;4955134;28;20041;-83
2022/06/24 06:28:27;;;;;;;0.20;0.20;;;19.00;99.90;;;;;;4957324;28;20646;-84
2022/06/24 06:30:52;;;;;;;0.00;0.00;;;21.00;99.90;;;;;;4954746;28;20518;-83
2022/06/24 06:33:18;;;;;;;1.60;1.13;;;21.00;99.90;;;;;;4955004;28;20047;-84
2022/06/24 06:35:44;;;;;;;0.00;0.00;;;20.00;99.90;;;;;;4935586;28;20039;-83
2022/06/24 06:38:10;;;;;;;0.13;0.13;;;19.70;99.90;;;;;;4938415;28;20034;-83
2022/06/24 06:40:37;;;;;;;0.07;0.07;;;19.60;99.90;;;;;;4946089;28;20185;-82
2022/06/24 06:43:05;;;;;;;0.22;0.22;;;19.40;99.90;;;;;;4944699;28;20118;-83
2022/06/24 06:45:32;;;;;;;0.10;0.10;;;19.20;99.90;;;;;;4943704;28;20499;-82
2022/06/24 06:47:57;;;;;;;0.08;0.08;;;19.20;99.90;;;;;;4939114;28;20037;-81
2022/06/24 06:50:23;;;;;;;1.27;0.73;;;19.30;99.90;;;;;;4954433;28;20039;-81
2022/06/24 06:52:48;;;;;;;0.10;0.10;;;19.40;99.90;;;;;;4951642;28;20039;-82
2022/06/24 06:55:14;;;;;;;0.40;0.40;;;19.30;99.90;;;;;;4948074;28;20031;-81
2022/06/24 06:57:40;;;;;;;0.03;0.03;;;19.00;99.90;;;;;;4949276;28;20039;-81
2022/06/24 07:00:07;;;;;;;0.47;0.33;;;18.80;99.90;;;;;;4948398;28;20397;-81
2022/06/24 07:02:33;;;;;;;1.00;0.73;;;18.50;99.90;;;;;;4951715;28;20031;-81
2022/06/24 07:04:58;;;;;;;0.10;0.10;;;18.70;99.90;;;;;;4955814;28;20043;-80
2022/06/24 07:07:24;;;;;;;0.20;0.20;;;18.60;99.90;;;;;;4961779;28;20510;-82
2022/06/24 07:09:51;;;;;;;0.23;0.20;;;18.40;99.90;;;;;;4959617;28;20022;-81
2022/06/24 07:12:17;;;;;;;;;;;18.20;99.90;;;;;;4958217;28;20157;-82
2022/06/24 07:14:43;;;;;;;0.28;0.28;;;18.40;99.90;;;;;;4962694;28;19922;-81
2022/06/24 07:17:09;;;;;;;7.25;3.28;;;18.80;99.90;;;;;;4958901;28;20047;-81
2022/06/24 07:19:35;;;;;;;14.20;11.13;;;18.80;99.90;;;;;;4977160;28;20853;-81
2022/06/24 07:22:01;;;;;;;3.10;2.27;;;19.30;99.90;;;;;;4958268;28;20054;-81
2022/06/24 07:24:27;;;;;;;33.23;17.07;;;19.90;99.90;;;;;;4954651;28;20043;-81
2022/06/24 07:26:53;;;;;;;7.60;5.07;;;21.10;99.90;;;;;;4951873;28;20030;-81
2022/06/24 07:29:19;;;;;;;2.03;1.83;;;20.30;99.90;;;;;;4959570;28;20043;-81
2022/06/24 07:31:47;;;;;;;2.67;2.47;;;20.00;99.90;;;;;;4942260;28;20530;-81
2022/06/24 07:34:14;;;;;;;1.95;1.50;;;20.50;99.90;;;;;;4958918;28;20137;-81
2022/06/24 07:36:40;;;;;;;10.20;8.27;;;20.10;99.90;;;;;;4956745;28;20089;-81
2022/06/24 07:39:06;;;;;;;0.40;0.40;;;19.70;99.90;;;;;;4951871;28;20090;-81
2022/06/24 07:41:32;;;;;;;0.67;0.67;;;19.60;99.90;;;;;;4932585;29;20038;-81
2022/06/24 07:43:57;;;;;;;0.40;0.40;;;19.40;99.90;;;;;;4931570;28;20046;-81
2022/06/24 07:46:23;;;;;;;1.40;1.30;;;19.10;99.90;;;;;;4960795;28;20030;-81
2022/06/24 07:48:49;;;;;;;0.20;0.20;;;19.30;99.90;;;;;;4957951;28;20033;-81
2022/06/24 07:51:16;;;;;;;0.50;0.50;;;20.20;99.90;;;;;;4959527;28;20039;-81
2022/06/24 07:53:44;;;;;;;1.35;0.30;;;20.60;99.90;;;;;;4962375;28;20035;-81
2022/06/24 07:58:54;;;;;;;0.60;0.60;;;21.10;99.90;;;;;;4958870;28;20054;-81
2022/06/24 08:01:20;;;;;;;0.00;0.00;;;20.70;99.90;;;;;;4959257;28;20035;-82
2022/06/24 08:03:46;;;;;;;0.23;0.20;;;21.30;99.90;;;;;;4949402;28;20279;-81
2022/06/24 08:06:12;;;;;;;0.17;0.17;;;21.20;99.90;;;;;;4931926;29;20687;-81
2022/06/24 08:08:38;;;;;;;0.03;0.03;;;21.80;99.90;;;;;;4951212;28;20526;-81
2022/06/24 08:11:04;;;;;;;0.08;0.08;;;21.90;99.90;;;;;;4946314;28;20042;-81
2022/06/24 08:13:30;;;;;;;0.10;0.10;;;21.90;99.90;;;;;;4945620;28;20027;-81
2022/06/24 08:15:56;;;;;;;0.00;0.00;;;22.50;99.90;;;;;;4946550;28;20123;-81
2022/06/24 08:18:22;;;;;;;0.08;0.08;;;21.50;99.90;;;;;;4952764;28;21182;-81
2022/06/24 08:20:48;;;;;;;1.10;0.53;;;20.70;99.90;;;;;;4949972;28;20051;-81
2022/06/24 08:23:14;;;;;;;0.00;0.00;;;20.70;99.90;;;;;;4949052;28;20283;-81
2022/06/24 08:25:40;;;;;;;0.00;0.00;;;20.70;99.90;;;;;;4947086;28;20044;-81
2022/06/24 08:28:05;;;;;;;0.00;0.00;;;21.30;99.90;;;;;;4950235;28;20090;-81
2022/06/24 08:30:31;;;;;;;0.00;0.00;;;21.70;99.90;;;;;;4949894;28;20050;-81
2022/06/24 08:32:57;;;;;;;0.10;0.10;;;22.00;99.90;;;;;;4949475;28;20315;-80
2022/06/24 08:35:22;;;;;;;0.00;0.00;;;21.80;99.90;;;;;;4946837;28;20046;-81
2022/06/24 08:37:48;;;;;;;0.00;0.00;;;21.80;99.90;;;;;;4950886;28;20063;-81
2022/06/24 08:40:15;;;;;;;0.15;0.10;;;21.20;99.90;;;;;;4949150;28;20482;-81
2022/06/24 08:42:44;;;;;;;0.13;0.13;;;21.20;99.90;;;;;;4946091;28;20035;-81
2022/06/24 08:45:12;;;;;;;0.03;0.03;;;20.90;99.90;;;;;;4946228;28;20050;-81
2022/06/24 08:47:39;;;;;;;0.00;0.00;;;20.90;99.90;;;;;;4946591;28;20028;-81
2022/06/24 08:50:07;;;;;;;0.10;0.10;;;20.90;99.90;;;;;;4946312;28;20057;-81
2022/06/24 08:52:33;;;;;;;0.28;0.28;;;20.90;99.90;;;;;;4945872;28;20031;-81
2022/06/24 08:55:01;;;;;;;0.03;0.03;;;20.70;99.90;;;;;;4946010;28;20883;-81
2022/06/24 08:57:27;;;;;;;0.00;0.00;;;20.90;99.90;;;;;;4945579;28;20031;-81
2022/06/24 08:59:53;;;;;;;0.10;0.10;;;20.30;99.90;;;;;;4945823;28;20106;-81
2022/06/24 09:02:18;;;;;;;0.00;0.00;;;20.30;99.90;;;;;;4946001;28;20031;-81
2022/06/24 09:04:45;;;;;;;0.10;0.10;;;19.80;99.90;;;;;;4945081;28;20035;-81
2022/06/24 09:07:23;;;;;;;0.00;0.00;;;19.50;99.90;;;;;;4945556;28;20027;-81
2022/06/24 09:09:59;;;;;;;0.13;0.00;;;19.60;99.90;;;;;;4951876;28;20039;-81
2022/06/24 09:12:29;;;;;;;0.00;0.00;;;19.20;99.90;;;;;;4948869;28;20042;-82
2022/06/24 09:14:54;;;;;;;0.08;0.08;;;19.20;99.90;;;;;;4954818;28;20042;-81
2022/06/24 09:17:31;;;;;;;0.10;0.10;;;19.30;99.90;;;;;;4957976;28;20035;-81
2022/06/24 09:20:13;;;;;;;0.25;0.25;;;19.70;99.90;;;;;;4972098;28;20055;-80
2022/06/24 09:22:39;;;;;;;0.93;0.17;;;20.30;99.90;;;;;;4959626;28;20057;-81
2022/06/24 09:25:06;;;;;;;6.57;2.28;;;20.30;99.90;;;;;;4956155;28;20035;-81
2022/06/24 09:27:33;;;;;;;0.10;0.10;;;20.00;99.90;;;;;;4948995;28;20046;-81
2022/06/24 09:29:59;;;;;;;0.10;0.10;;;21.40;99.90;;;;;;4948065;28;20057;-81
2022/06/24 09:32:25;;;;;;;0.10;0.00;;;22.20;99.90;;;;;;4945971;28;20559;-82
2022/06/24 09:35:07;;;;;;;0.00;0.00;;;21.40;99.90;;;;;;4945824;28;20031;-81
2022/06/24 09:37:38;;;;;;;0.05;0.05;;;22.20;99.90;;;;;;4948890;28;20046;-82
2022/06/24 09:40:25;;;;;;;0.00;0.00;;;22.40;99.90;;;;;;4927319;28;20051;-82
2022/06/24 09:42:51;;;;;;;0.00;0.00;;;23.20;99.90;;;;;;4945892;28;20031;-81
2022/06/24 09:45:17;;;;;;;0.00;0.00;;;24.00;99.90;;;;;;4944945;28;20032;-81
2022/06/24 09:47:48;;;;;;;0.30;0.30;;;25.40;99.90;;;;;;4945349;28;20413;-81
2022/06/24 09:50:14;;;;;;;0.00;0.00;;;24.80;99.90;;;;;;4945568;28;20113;-82
2022/06/24 09:52:40;;;;;;;0.00;0.00;;;23.00;99.90;;;;;;4930300;28;20158;-81
2022/06/24 09:55:08;;;;;;;0.03;0.03;;;23.50;99.90;;;;;;4945655;28;20070;-81
2022/06/24 09:57:34;;;;;;;0.00;0.00;;;23.90;99.90;;;;;;4945111;28;20027;-82
2022/06/24 10:02:46;;;;;;;0.10;0.10;;;26.80;99.90;;;;;;4949626;28;20042;-81
2022/06/24 10:05:17;;;;;;;0.00;0.00;;;27.50;99.90;;;;;;4946270;28;20039;-81
2022/06/24 10:07:48;;;;;;;0.25;0.25;;;24.40;99.90;;;;;;4963448;28;20510;-82
2022/06/24 10:10:16;;;;;;;0.00;0.00;;;22.70;99.90;;;;;;4960347;28;20023;-81
2022/06/24 10:12:50;;;;;;;1.30;0.32;;;22.10;99.90;;;;;;4952315;28;20071;-81
2022/06/24 10:15:18;;;;;;;0.40;0.28;;;21.80;99.90;;;;;;4948913;28;20058;-81
2022/06/24 10:17:46;;;;;;;0.00;0.00;;;24.70;99.90;;;;;;4949121;28;20027;-81
2022/06/24 10:20:13;;;;;;;0.28;0.25;;;24.00;99.90;;;;;;4949781;28;20043;-81
2022/06/24 10:22:49;;;;;;;0.17;0.10;;;29.30;99.90;;;;;;4928882;28;20397;-81
2022/06/24 10:25:22;;;;;;;0.00;0.00;;;27.80;99.90;;;;;;4948581;28;20070;-81
2022/06/24 10:27:59;;;;;;;0.28;0.28;;;27.90;99.90;;;;;;4950559;28;20755;-81
2022/06/24 10:30:40;;;;;;;0.00;0.00;;;29.50;99.90;;;;;;4948764;28;20035;-81
2022/06/24 10:33:12;;;;;;;0.00;0.00;;;27.00;97.40;;;;;;4949078;28;20611;-80
2022/06/24 10:36:06;;;;;;;0.10;0.10;;;24.10;99.90;;;;;;4951438;28;20089;-81
2022/06/24 10:38:42;;;;;;;0.35;0.25;;;24.00;99.90;;;;;;4946715;28;20031;-81
2022/06/24 10:41:13;;;;;;;0.10;0.10;;;26.70;99.90;;;;;;4947928;28;20849;-81
2022/06/24 10:43:48;;;;;;;0.00;0.00;;;28.00;99.90;;;;;;4950182;28;20098;-81
2022/06/24 10:46:17;;;;;;;0.30;0.30;;;26.80;99.90;;;;;;4952390;28;20043;-81
2022/06/24 10:48:43;;;;;;;0.10;0.10;;;25.80;99.90;;;;;;4951934;28;20508;-81
2022/06/24 10:51:20;;;;;;;0.00;0.00;;;25.00;99.90;;;;;;4952217;28;20038;-81
2022/06/24 10:54:09;;;;;;;0.10;0.10;;;24.90;99.90;;;;;;4951965;28;20105;-81
2022/06/24 10:56:49;;;;;;;0.00;0.00;;;24.60;99.90;;;;;;4951297;28;20018;-81
2022/06/24 10:59:19;;;;;;;0.20;0.10;;;24.10;99.90;;;;;;4948832;28;20708;-81
2022/06/24 11:01:50;;;;;;;0.00;0.00;;;23.90;99.90;;;;;;4952480;28;20103;-81
2022/06/24 11:04:21;;;;;;;0.10;0.10;;;24.00;99.90;;;;;;4951254;28;20031;-81
2022/06/24 11:07:11;;;;;;;0.13;0.10;;;24.30;99.90;;;;;;4951491;28;20495;-81
2022/06/24 11:09:37;;;;;;;0.00;0.00;;;23.80;99.90;;;;;;4946662;28;20043;-81
2022/06/24 11:12:05;;;;;;;0.70;0.38;;;23.60;99.90;;;;;;4952114;28;20019;-81
2022/06/24 11:14:31;;;;;;;0.00;0.00;;;23.00;99.90;;;;;;4950442;28;20030;-81
2022/06/24 11:16:57;;;;;;;0.10;0.10;;;23.80;99.90;;;;;;4948340;28;20105;-81
2022/06/24 11:19:23;;;;;;;0.35;0.35;;;24.00;99.90;;;;;;4954376;28;20126;-81
2022/06/24 11:21:50;;;;;;;0.00;0.00;;;24.00;99.90;;;;;;4951258;28;20055;-80
2022/06/24 11:24:20;;;;;;;0.00;0.00;;;23.50;99.90;;;;;;4950455;28;20054;-81
2022/06/24 11:27:06;;;;;;;0.00;0.00;;;23.70;99.90;;;;;;4945972;28;20038;-80
2022/06/24 11:29:56;;;;;;;0.10;0.10;;;23.10;99.90;;;;;;4957096;28;20046;-80
2022/06/24 11:32:22;;;;;;;0.00;0.00;;;22.90;99.90;;;;;;4947280;28;20034;-81
2022/06/24 11:34:48;;;;;;;0.20;0.20;;;23.20;99.90;;;;;;4946268;28;20535;-81
2022/06/24 11:37:23;;;;;;;0.00;0.00;;;23.40;99.90;;;;;;4946848;28;20728;-81
2022/06/24 11:39:53;;;;;;;0.03;0.03;;;23.20;99.90;;;;;;4946846;28;20043;-80
2022/06/24 11:42:21;;;;;;;0.10;0.10;;;23.10;99.90;;;;;;4947258;28;20027;-80
2022/06/24 11:44:51;;;;;;;0.10;0.10;;;22.80;99.90;;;;;;4946150;28;20523;-80
2022/06/24 11:47:29;;;;;;;0.00;0.00;;;22.80;99.90;;;;;;4947023;28;20042;-81
2022/06/24 11:49:54;;;;;;;0.08;0.00;;;22.70;99.90;;;;;;4946652;28;20043;-81
2022/06/24 11:52:20;;;;;;;0.20;0.20;;;22.20;99.90;;;;;;4947238;28;20027;-80
2022/06/24 11:54:46;;;;;;;0.07;0.00;;;22.20;99.90;;;;;;4947651;28;20031;-80
2022/06/24 11:57:12;;;;;;;0.17;0.07;;;21.90;99.90;;;;;;4947683;28;20106;-81
2022/06/24 11:59:38;;;;;;;0.15;0.15;;;22.30;99.90;;;;;;4947961;28;20042;-81
2022/06/24 12:02:08;;;;;;;0.00;0.00;;;22.50;99.90;;;;;;4946441;28;20039;-80
2022/06/24 12:04:34;;;;;;;0.00;0.00;;;22.70;99.90;;;;;;4932843;28;20408;-81
2022/06/24 12:07:03;;;;;;;0.10;0.00;;;22.90;99.90;;;;;;4949617;28;20054;-81
2022/06/24 12:09:30;;;;;;;0.00;0.00;;;23.50;99.90;;;;;;4932268;28;20046;-81
2022/06/24 12:12:08;;;;;;;0.10;0.10;;;23.50;99.90;;;;;;4948258;28;20035;-80
2022/06/24 12:14:33;;;;;;;0.00;0.00;;;23.70;99.90;;;;;;4950451;28;20031;-81
2022/06/24 12:17:08;;;;;;;0.00;0.00;;;23.90;99.90;;;;;;4946151;28;20058;-81
2022/06/24 12:19:36;;;;;;;0.20;0.08;;;24.00;99.90;;;;;;4973142;28;20117;-81
2022/06/24 12:22:09;;;;;;;0.45;0.32;;;23.90;99.90;;;;;;4951297;28;20524;-81
2022/06/24 12:24:36;;;;;;;0.00;0.00;;;23.20;99.90;;;;;;4950895;28;20042;-80
2022/06/24 12:27:04;;;;;;;0.00;0.00;;;22.90;99.90;;;;;;4950443;28;20070;-80
2022/06/24 12:29:37;;;;;;;0.00;0.00;;;23.40;99.90;;;;;;4951236;28;20043;-81
2022/06/24 12:32:05;;;;;;;0.00;0.00;;;23.60;99.90;;;;;;4946731;28;20037;-81
2022/06/24 12:34:36;;;;;;;0.00;0.00;;;23.30;99.90;;;;;;4958328;28;20027;-81
2022/06/24 12:37:05;;;;;;;0.00;0.00;;;22.80;99.90;;;;;;4951940;28;20035;-80
2022/06/24 12:39:52;;;;;;;0.52;0.32;;;22.60;99.90;;;;;;4952970;28;20035;-81
2022/06/24 12:42:22;;;;;;;0.60;0.60;;;22.30;99.90;;;;;;4956756;28;20035;-80
2022/06/24 12:44:55;;;;;;;0.00;0.00;;;22.00;99.90;;;;;;4951055;28;20119;-81
2022/06/24 12:52:57;;;;;;;0.15;0.15;;;23.30;99.90;;;;;;4944927;28;20049;-80
2022/06/24 12:55:23;;;;;;;0.05;0.05;;;23.90;99.90;;;;;;4949537;28;20046;-80
2022/06/24 12:57:49;;;;;;;0.43;0.20;;;24.40;99.90;;;;;;4927735;28;20039;-81
2022/06/24 13:00:16;;;;;;;0.22;0.22;;;23.80;99.90;;;;;;4949949;28;20487;-81
2022/06/24 13:02:47;;;;;;;0.00;0.00;;;23.80;99.90;;;;;;4950374;28;20035;-81
2022/06/24 13:05:14;;;;;;;0.10;0.10;;;23.50;99.90;;;;;;4939447;28;20385;-81
2022/06/24 13:07:40;;;;;;;0.10;0.10;;;23.40;99.90;;;;;;4947307;28;20942;-81
2022/06/24 13:10:08;;;;;;;0.10;0.10;;;23.50;99.90;;;;;;4931762;29;20043;-81
2022/06/24 13:12:34;;;;;;;0.00;0.00;;;23.50;99.90;;;;;;4948203;28;20051;-80